Time;durP1;ratioP1;P1;durP2;ratioP2;P2;SDS_P1;SDS_P2;PMS_P1;PMS_P2;Temp;Humidity;BMP_temperature;BMP_pressure;BME280_temperature;BME280_humidity;BME280_pressure;Samples;Min_cycle;Max_cycle;Signal;HPM_P1;HPM_P2
2022/07/16 00:01:22;;;;;;;0.10;0.10;;;;;;;;;;1853393;76;26260;-39
2022/07/16 00:04:00;;;;;;;0.20;0.20;;;;;;;;;;1850442;76;26737;-45
2022/07/16 00:06:28;;;;;;;0.20;0.20;;;;;;;;;;1851950;75;26770;-39
2022/07/16 00:08:56;;;;;;;0.20;0.20;;;;;;;;;;1851285;76;26270;-41
2022/07/16 00:11:23;;;;;;;0.20;0.20;;;;;;;;;;1850202;75;26295;-41
2022/07/16 00:13:50;;;;;;;0.20;0.20;;;;;;;;;;1841692;75;26296;-44
2022/07/16 00:16:18;;;;;;;0.20;0.20;;;;;;;;;;1855777;75;26371;-40
2022/07/16 00:21:30;;;;;;;0.15;0.15;;;;;;;;;;1859903;75;26625;-45
2022/07/16 00:23:57;;;;;;;0.28;0.28;;;;;;;;;;1845963;76;26231;-39
2022/07/16 00:26:25;;;;;;;0.20;0.20;;;;;;;;;;1865487;76;26333;-40
2022/07/16 00:28:52;;;;;;;0.10;0.10;;;;;;;;;;1854593;77;26709;-40
2022/07/16 00:31:19;;;;;;;0.20;0.20;;;;;;;;;;1852083;75;26260;-39
2022/07/16 00:33:47;;;;;;;0.30;0.30;;;;;;;;;;1856439;75;26259;-42
2022/07/16 00:36:14;;;;;;;0.28;0.28;;;;;;;;;;1869199;75;26231;-42
2022/07/16 00:38:41;;;;;;;0.20;0.20;;;;;;;;;;1843750;75;26261;-40
2022/07/16 00:41:16;;;;;;;0.20;0.20;;;;;;;;;;1847209;77;26748;-39
2022/07/16 00:43:48;;;;;;;0.20;0.20;;;;;;;;;;1864036;75;26460;-41
2022/07/16 00:46:15;;;;;;;0.20;0.20;;;;;;;;;;1858491;75;26261;-38
2022/07/16 00:48:43;;;;;;;0.20;0.20;;;;;;;;;;1859195;75;26255;-40
2022/07/16 00:51:11;;;;;;;0.20;0.20;;;;;;;;;;1864629;75;26332;-42
2022/07/16 00:53:38;;;;;;;0.30;0.30;;;;;;;;;;1854075;77;26563;-40
2022/07/16 00:56:09;;;;;;;0.25;0.25;;;;;;;;;;1856546;75;26256;-39
2022/07/16 00:58:38;;;;;;;0.42;0.42;;;;;;;;;;1872288;75;26241;-41
2022/07/16 01:01:06;;;;;;;0.20;0.20;;;;;;;;;;1846797;75;26659;-40
2022/07/16 01:03:33;;;;;;;0.20;0.20;;;;;;;;;;1841710;76;26382;-40
2022/07/16 01:06:02;;;;;;;0.20;0.20;;;;;;;;;;1864119;76;26903;-40
2022/07/16 01:08:29;;;;;;;0.20;0.20;;;;;;;;;;1854421;75;26268;-40
2022/07/16 01:10:57;;;;;;;0.20;0.20;;;;;;;;;;1849271;76;26672;-41
2022/07/16 01:13:24;;;;;;;0.20;0.20;;;;;;;;;;1861824;76;26267;-44
2022/07/16 01:15:52;;;;;;;0.25;0.25;;;;;;;;;;1862361;75;26377;-42
2022/07/16 01:21:08;;;;;;;0.40;0.40;;;;;;;;;;1885665;72;26295;-41
2022/07/16 01:23:42;;;;;;;0.20;0.20;;;;;;;;;;1883072;74;26212;-40
2022/07/16 01:26:07;;;;;;;0.30;0.30;;;;;;;;;;1878545;73;26688;-38
2022/07/16 01:28:34;;;;;;;0.25;0.25;;;;;;;;;;1883810;73;26355;-40
2022/07/16 01:31:07;;;;;;;0.20;0.20;;;;;;;;;;1893294;72;51584;-88
2022/07/16 01:33:36;;;;;;;0.40;0.40;;;;;;;;;;1890421;74;26358;-87
2022/07/16 01:36:05;;;;;;;0.30;0.30;;;;;;;;;;1895022;74;26275;-87
2022/07/16 01:38:34;;;;;;;0.20;0.20;;;;;;;;;;1896787;75;26200;-87
2022/07/16 01:41:01;;;;;;;0.20;0.20;;;;;;;;;;1891765;75;27072;-86
2022/07/16 01:43:29;;;;;;;0.20;0.20;;;;;;;;;;1898647;74;26648;-86
2022/07/16 01:45:57;;;;;;;0.28;0.28;;;;;;;;;;1889627;75;26250;-86
2022/07/16 01:48:24;;;;;;;0.30;0.30;;;;;;;;;;1871507;75;26679;-87
2022/07/16 01:50:52;;;;;;;0.20;0.20;;;;;;;;;;1889874;75;26306;-87
2022/07/16 01:53:20;;;;;;;0.40;0.40;;;;;;;;;;1899812;74;26324;-86
2022/07/16 01:55:48;;;;;;;0.20;0.20;;;;;;;;;;1895296;75;26767;-87
2022/07/16 01:58:16;;;;;;;0.30;0.30;;;;;;;;;;1890726;75;26204;-87
2022/07/16 02:00:44;;;;;;;0.30;0.30;;;;;;;;;;1909409;75;26226;-87
2022/07/16 02:03:12;;;;;;;0.20;0.20;;;;;;;;;;1878660;73;26272;-87
2022/07/16 02:05:40;;;;;;;0.20;0.20;;;;;;;;;;1877643;75;26734;-87
2022/07/16 02:08:07;;;;;;;0.23;0.23;;;;;;;;;;1871116;74;26293;-87
2022/07/16 02:10:35;;;;;;;0.30;0.30;;;;;;;;;;1910349;75;26760;-86
2022/07/16 02:13:03;;;;;;;0.23;0.23;;;;;;;;;;1879904;75;26246;-87
2022/07/16 02:15:31;;;;;;;0.20;0.20;;;;;;;;;;1868810;75;26671;-86
2022/07/16 02:17:58;;;;;;;0.30;0.30;;;;;;;;;;1898183;74;26291;-86
2022/07/16 02:20:25;;;;;;;0.30;0.30;;;;;;;;;;1891605;75;26683;-86
2022/07/16 02:22:53;;;;;;;0.30;0.30;;;;;;;;;;1903274;74;26314;-86
2022/07/16 02:25:21;;;;;;;0.20;0.20;;;;;;;;;;1889853;74;26268;-86
2022/07/16 02:28:06;;;;;;;0.20;0.20;;;;;;;;;;1885194;73;27564;-87
2022/07/16 02:30:40;;;;;;;0.30;0.30;;;;;;;;;;1891449;75;26232;-86
2022/07/16 02:33:08;;;;;;;0.20;0.20;;;;;;;;;;1882995;75;26737;-87
2022/07/16 02:35:36;;;;;;;0.10;0.10;;;;;;;;;;1874678;73;26220;-87
2022/07/16 02:38:05;;;;;;;0.20;0.20;;;;;;;;;;1901981;75;26656;-87
2022/07/16 02:40:33;;;;;;;0.13;0.13;;;;;;;;;;1908310;74;26209;-86
2022/07/16 02:43:04;;;;;;;0.20;0.20;;;;;;;;;;1892403;74;27190;-87
2022/07/16 02:45:32;;;;;;;0.20;0.20;;;;;;;;;;1873292;75;26398;-87
2022/07/16 02:47:59;;;;;;;0.20;0.20;;;;;;;;;;1886800;74;26372;-87
2022/07/16 02:50:27;;;;;;;0.20;0.20;;;;;;;;;;1873713;75;26288;-86
2022/07/16 02:52:54;;;;;;;0.20;0.20;;;;;;;;;;1871244;75;26651;-87
2022/07/16 02:55:22;;;;;;;0.20;0.20;;;;;;;;;;1896622;74;26215;-87
2022/07/16 02:57:49;;;;;;;0.20;0.20;;;;;;;;;;1893194;75;26267;-86
2022/07/16 03:00:17;;;;;;;0.10;0.10;;;;;;;;;;1887589;74;26215;-87
2022/07/16 03:02:45;;;;;;;0.17;0.17;;;;;;;;;;1907836;75;26289;-87
2022/07/16 03:05:12;;;;;;;0.25;0.25;;;;;;;;;;1888278;75;26297;-87
2022/07/16 03:07:41;;;;;;;0.20;0.20;;;;;;;;;;1885761;75;26319;-87
2022/07/16 03:10:09;;;;;;;0.20;0.20;;;;;;;;;;1896487;74;26223;-87
2022/07/16 03:12:39;;;;;;;0.10;0.10;;;;;;;;;;1899435;74;26358;-87
2022/07/16 03:15:07;;;;;;;0.10;0.10;;;;;;;;;;1903416;75;27081;-87
2022/07/16 03:17:35;;;;;;;0.17;0.17;;;;;;;;;;1902051;75;26300;-86
2022/07/16 03:20:02;;;;;;;0.30;0.30;;;;;;;;;;1886241;74;27188;-86
2022/07/16 03:22:29;;;;;;;0.20;0.20;;;;;;;;;;1891770;75;26299;-86
2022/07/16 03:24:57;;;;;;;0.20;0.20;;;;;;;;;;1892627;74;26286;-87
2022/07/16 03:27:25;;;;;;;0.05;0.05;;;;;;;;;;1886470;74;26680;-86
2022/07/16 03:29:52;;;;;;;0.17;0.17;;;;;;;;;;1879558;75;26270;-85
2022/07/16 03:32:19;;;;;;;0.10;0.10;;;;;;;;;;1898503;75;26335;-85
2022/07/16 03:34:47;;;;;;;0.10;0.10;;;;;;;;;;1898034;75;26399;-86
2022/07/16 03:37:14;;;;;;;0.17;0.17;;;;;;;;;;1900041;75;26199;-86
2022/07/16 03:39:41;;;;;;;0.23;0.23;;;;;;;;;;1898989;75;26270;-87
2022/07/16 03:42:08;;;;;;;0.20;0.20;;;;;;;;;;1890604;74;26304;-88
2022/07/16 03:44:38;;;;;;;0.17;0.17;;;;;;;;;;1878556;75;26301;-88
2022/07/16 03:47:05;;;;;;;0.23;0.23;;;;;;;;;;1891120;75;26319;-87
2022/07/16 03:49:32;;;;;;;0.20;0.20;;;;;;;;;;1888869;75;26357;-87
2022/07/16 03:51:59;;;;;;;0.20;0.20;;;;;;;;;;1893802;75;26244;-87
2022/07/16 03:54:28;;;;;;;0.13;0.13;;;;;;;;;;1888342;74;26293;-87
2022/07/16 03:56:55;;;;;;;0.20;0.20;;;;;;;;;;1887230;75;26235;-88
2022/07/16 03:59:22;;;;;;;0.10;0.10;;;;;;;;;;1882153;75;26264;-87
2022/07/16 04:01:49;;;;;;;0.10;0.10;;;;;;;;;;1881447;75;26321;-86
2022/07/16 04:04:17;;;;;;;0.10;0.10;;;;;;;;;;1888175;74;26713;-87
2022/07/16 04:06:44;;;;;;;0.23;0.23;;;;;;;;;;1865468;75;26316;-86
2022/07/16 04:09:11;;;;;;;0.17;0.17;;;;;;;;;;1890498;73;26294;-86
2022/07/16 04:11:43;;;;;;;0.62;0.20;;;;;;;;;;1902641;74;26236;-87
2022/07/16 04:14:07;;;;;;;0.10;0.10;;;;;;;;;;1898751;74;26241;-86
2022/07/16 04:16:35;;;;;;;0.20;0.20;;;;;;;;;;1891690;74;26250;-86
2022/07/16 04:19:06;;;;;;;0.20;0.20;;;;;;;;;;1889660;75;25390;-86
2022/07/16 04:21:33;;;;;;;0.10;0.10;;;;;;;;;;1885462;74;26273;-87
2022/07/16 04:24:00;;;;;;;0.10;0.10;;;;;;;;;;1889544;74;26747;-86
2022/07/16 04:26:28;;;;;;;0.10;0.10;;;;;;;;;;1885299;75;26336;-86
2022/07/16 04:28:56;;;;;;;0.10;0.10;;;;;;;;;;1887882;74;26368;-86
2022/07/16 04:31:24;;;;;;;0.20;0.20;;;;;;;;;;1888183;75;27090;-86
2022/07/16 04:33:51;;;;;;;0.10;0.10;;;;;;;;;;1887424;75;26232;-86
2022/07/16 04:36:19;;;;;;;0.20;0.20;;;;;;;;;;1886752;75;26263;-86
2022/07/16 04:38:46;;;;;;;0.13;0.13;;;;;;;;;;1899563;74;26160;-86
2022/07/16 04:41:13;;;;;;;0.10;0.10;;;;;;;;;;1887999;74;26356;-87
2022/07/16 04:43:41;;;;;;;0.15;0.15;;;;;;;;;;1882618;75;26255;-86
2022/07/16 04:46:08;;;;;;;0.20;0.20;;;;;;;;;;1877602;74;26231;-86
2022/07/16 04:48:35;;;;;;;0.10;0.10;;;;;;;;;;1887989;74;26263;-85
2022/07/16 04:51:03;;;;;;;0.20;0.20;;;;;;;;;;1873285;75;26368;-86
2022/07/16 04:53:30;;;;;;;0.20;0.20;;;;;;;;;;1901152;75;26243;-86
2022/07/16 04:55:57;;;;;;;0.10;0.10;;;;;;;;;;1898221;74;26259;-87
2022/07/16 04:58:24;;;;;;;0.13;0.13;;;;;;;;;;1886738;75;26211;-86
2022/07/16 05:00:51;;;;;;;0.10;0.10;;;;;;;;;;1885112;74;27551;-87
2022/07/16 05:03:19;;;;;;;0.10;0.10;;;;;;;;;;1888262;75;26219;-85
2022/07/16 05:05:46;;;;;;;0.10;0.10;;;;;;;;;;1887675;74;26784;-86
2022/07/16 05:08:13;;;;;;;0.10;0.10;;;;;;;;;;1881197;74;26786;-87
2022/07/16 05:10:41;;;;;;;0.10;0.10;;;;;;;;;;1898130;74;26240;-88
2022/07/16 05:13:10;;;;;;;0.10;0.10;;;;;;;;;;1882030;74;26823;-87
2022/07/16 05:15:38;;;;;;;0.10;0.10;;;;;;;;;;1891117;75;26638;-87
2022/07/16 05:18:05;;;;;;;0.13;0.13;;;;;;;;;;1896135;75;26212;-87
2022/07/16 05:20:33;;;;;;;0.10;0.10;;;;;;;;;;1901599;74;26786;-86
2022/07/16 05:23:01;;;;;;;0.10;0.10;;;;;;;;;;1898503;75;26282;-87
2022/07/16 05:25:28;;;;;;;0.10;0.10;;;;;;;;;;1900795;75;26254;-86
2022/07/16 05:27:56;;;;;;;0.10;0.10;;;;;;;;;;1889153;75;27524;-86
2022/07/16 05:30:23;;;;;;;0.20;0.20;;;;;;;;;;1910766;74;26223;-87
2022/07/16 05:32:51;;;;;;;0.10;0.10;;;;;;;;;;1904231;74;26354;-87
2022/07/16 05:35:18;;;;;;;0.10;0.10;;;;;;;;;;1889284;74;26307;-86
2022/07/16 05:37:45;;;;;;;0.17;0.17;;;;;;;;;;1883094;75;26762;-86
2022/07/16 05:40:13;;;;;;;0.10;0.10;;;;;;;;;;1877415;75;26310;-86
2022/07/16 05:42:40;;;;;;;0.10;0.10;;;;;;;;;;1886288;74;26211;-87
2022/07/16 05:45:08;;;;;;;0.10;0.10;;;;;;;;;;1897003;74;26286;-87
2022/07/16 05:47:36;;;;;;;0.10;0.10;;;;;;;;;;1878796;74;26837;-87
2022/07/16 05:50:06;;;;;;;0.10;0.10;;;;;;;;;;1889528;74;26322;-86
2022/07/16 05:52:34;;;;;;;0.10;0.10;;;;;;;;;;1891661;75;26256;-87
2022/07/16 05:55:01;;;;;;;0.10;0.10;;;;;;;;;;1895453;74;26830;-86
2022/07/16 05:57:28;;;;;;;0.10;0.10;;;;;;;;;;1900413;74;26304;-87
2022/07/16 05:59:56;;;;;;;0.20;0.20;;;;;;;;;;1904256;75;26231;-86
2022/07/16 06:02:23;;;;;;;0.13;0.13;;;;;;;;;;1895008;75;26191;-85
2022/07/16 06:04:50;;;;;;;0.10;0.10;;;;;;;;;;1901192;75;26231;-86
2022/07/16 06:07:18;;;;;;;0.28;0.28;;;;;;;;;;1882247;74;26264;-86
2022/07/16 06:09:45;;;;;;;0.10;0.10;;;;;;;;;;1897002;74;26195;-87
2022/07/16 06:12:12;;;;;;;0.15;0.15;;;;;;;;;;1892787;74;26219;-86
2022/07/16 06:14:39;;;;;;;0.10;0.10;;;;;;;;;;1887079;75;26293;-87
2022/07/16 06:17:07;;;;;;;0.10;0.10;;;;;;;;;;1902155;74;26328;-87
2022/07/16 06:19:34;;;;;;;0.00;0.00;;;;;;;;;;1884240;75;26331;-86
2022/07/16 06:22:01;;;;;;;0.20;0.20;;;;;;;;;;1895458;74;26276;-87
2022/07/16 06:24:29;;;;;;;0.10;0.10;;;;;;;;;;1877190;74;26219;-86
2022/07/16 06:26:56;;;;;;;0.10;0.10;;;;;;;;;;1899612;75;26249;-86
2022/07/16 06:29:23;;;;;;;0.20;0.20;;;;;;;;;;1888850;75;26324;-87
2022/07/16 06:31:50;;;;;;;0.10;0.10;;;;;;;;;;1879078;75;26251;-86
2022/07/16 06:34:19;;;;;;;0.20;0.20;;;;;;;;;;1893236;75;26208;-86
2022/07/16 06:36:48;;;;;;;0.20;0.20;;;;;;;;;;1889372;74;26244;-86
2022/07/16 06:39:15;;;;;;;0.20;0.20;;;;;;;;;;1873612;75;26353;-87
2022/07/16 06:41:43;;;;;;;0.37;0.10;;;;;;;;;;1876471;75;26269;-87
2022/07/16 06:44:10;;;;;;;0.10;0.10;;;;;;;;;;1907983;75;26291;-87
2022/07/16 06:46:37;;;;;;;0.13;0.13;;;;;;;;;;1881297;75;26248;-86
2022/07/16 06:49:05;;;;;;;0.10;0.10;;;;;;;;;;1879138;74;26265;-87
2022/07/16 06:51:32;;;;;;;0.20;0.20;;;;;;;;;;1883313;74;26797;-87
2022/07/16 06:53:59;;;;;;;0.10;0.10;;;;;;;;;;1895553;74;26363;-87
2022/07/16 06:56:27;;;;;;;0.10;0.10;;;;;;;;;;1896689;74;26219;-85
2022/07/16 06:58:54;;;;;;;1.10;0.10;;;;;;;;;;1878623;73;26299;-86
2022/07/16 07:01:21;;;;;;;0.08;0.08;;;;;;;;;;1895056;74;26243;-86
2022/07/16 07:03:48;;;;;;;0.10;0.10;;;;;;;;;;1890981;74;26228;-87
2022/07/16 07:06:16;;;;;;;0.10;0.10;;;;;;;;;;1892939;75;26715;-86
2022/07/16 07:08:43;;;;;;;0.10;0.10;;;;;;;;;;1884452;74;26294;-89
2022/07/16 07:11:11;;;;;;;0.10;0.10;;;;;;;;;;1892152;75;26248;-86
2022/07/16 07:13:38;;;;;;;0.10;0.10;;;;;;;;;;1882452;75;26236;-87
2022/07/16 07:16:06;;;;;;;0.10;0.10;;;;;;;;;;1887509;74;26234;-87
2022/07/16 07:18:33;;;;;;;0.10;0.10;;;;;;;;;;1892135;75;26311;-87
2022/07/16 07:21:01;;;;;;;0.10;0.10;;;;;;;;;;1896857;73;26263;-87
2022/07/16 07:23:28;;;;;;;0.05;0.05;;;;;;;;;;1887515;74;26235;-87
2022/07/16 07:25:56;;;;;;;0.10;0.10;;;;;;;;;;1901635;74;26735;-87
2022/07/16 07:28:23;;;;;;;0.10;0.10;;;;;;;;;;1893280;74;26242;-87
2022/07/16 07:30:50;;;;;;;0.10;0.10;;;;;;;;;;1904396;75;26368;-86
2022/07/16 07:33:18;;;;;;;0.10;0.10;;;;;;;;;;1897528;75;26200;-86
2022/07/16 07:35:45;;;;;;;0.10;0.10;;;;;;;;;;1890244;75;26419;-87
2022/07/16 07:38:13;;;;;;;0.10;0.10;;;;;;;;;;1905352;74;26263;-87
2022/07/16 07:40:40;;;;;;;0.25;0.10;;;;;;;;;;1891899;74;26333;-87
2022/07/16 07:43:09;;;;;;;0.10;0.10;;;;;;;;;;1900904;75;26709;-87
2022/07/16 07:45:36;;;;;;;0.10;0.10;;;;;;;;;;1902932;74;26360;-86
2022/07/16 07:48:03;;;;;;;0.10;0.10;;;;;;;;;;1816296;76;26272;-85
2022/07/16 07:50:32;;;;;;;0.10;0.10;;;;;;;;;;1887388;74;26263;-87
2022/07/16 07:52:59;;;;;;;0.10;0.10;;;;;;;;;;1888906;74;26282;-87
2022/07/16 07:55:26;;;;;;;0.10;0.10;;;;;;;;;;1885496;74;27074;-86
2022/07/16 07:57:54;;;;;;;0.10;0.10;;;;;;;;;;1894960;74;26333;-86
2022/07/16 08:00:21;;;;;;;0.10;0.10;;;;;;;;;;1897481;74;26325;-86
2022/07/16 08:02:49;;;;;;;0.20;0.20;;;;;;;;;;1895242;75;26231;-87
2022/07/16 08:05:16;;;;;;;0.10;0.10;;;;;;;;;;1893672;75;26296;-86
2022/07/16 08:07:44;;;;;;;0.10;0.10;;;;;;;;;;1890588;74;27814;-87
2022/07/16 08:10:11;;;;;;;0.20;0.20;;;;;;;;;;1901778;74;26232;-87
2022/07/16 08:12:39;;;;;;;0.20;0.20;;;;;;;;;;1881593;75;26618;-87
2022/07/16 08:15:07;;;;;;;0.05;0.05;;;;;;;;;;1872337;75;26253;-87
2022/07/16 08:17:35;;;;;;;0.10;0.10;;;;;;;;;;1888358;74;26646;-87
2022/07/16 08:20:04;;;;;;;0.10;0.10;;;;;;;;;;1892030;75;26245;-87
2022/07/16 08:22:31;;;;;;;0.20;0.20;;;;;;;;;;1884853;75;26259;-85
2022/07/16 08:27:44;;;;;;;0.20;0.20;;;;;;;;;;1880050;74;26279;-86
2022/07/16 08:30:11;;;;;;;0.10;0.10;;;;;;;;;;1885880;74;26900;-86
2022/07/16 08:32:39;;;;;;;0.05;0.05;;;;;;;;;;1885223;75;26228;-86
2022/07/16 08:35:07;;;;;;;0.30;0.30;;;;;;;;;;1878040;74;26456;-86
2022/07/16 08:37:36;;;;;;;0.10;0.10;;;;;;;;;;1883984;75;27113;-86
2022/07/16 08:40:04;;;;;;;0.10;0.10;;;;;;;;;;1893162;74;26780;-86
2022/07/16 08:42:35;;;;;;;0.10;0.10;;;;;;;;;;1876629;74;26801;-85
2022/07/16 08:45:03;;;;;;;0.10;0.10;;;;;;;;;;1899209;74;26352;-86
2022/07/16 08:47:31;;;;;;;0.10;0.10;;;;;;;;;;1891417;75;26292;-86
2022/07/16 08:50:00;;;;;;;0.10;0.10;;;;;;;;;;1903869;75;26806;-86
2022/07/16 08:52:28;;;;;;;0.25;0.10;;;;;;;;;;1892661;75;26660;-86
2022/07/16 08:54:56;;;;;;;0.15;0.15;;;;;;;;;;1900857;75;26802;-86
2022/07/16 08:57:24;;;;;;;0.10;0.10;;;;;;;;;;1892423;75;26824;-88
2022/07/16 08:59:52;;;;;;;0.20;0.20;;;;;;;;;;1895076;75;26326;-87
2022/07/16 09:02:19;;;;;;;0.17;0.17;;;;;;;;;;1895471;75;26239;-86
2022/07/16 09:04:47;;;;;;;0.15;0.15;;;;;;;;;;1895568;74;26243;-87
2022/07/16 09:07:17;;;;;;;0.10;0.10;;;;;;;;;;1868258;74;26257;-86
2022/07/16 09:09:47;;;;;;;0.00;0.00;;;;;;;;;;1898374;75;26283;-86
2022/07/16 09:12:16;;;;;;;0.13;0.10;;;;;;;;;;1892280;75;26232;-87
2022/07/16 09:14:43;;;;;;;0.28;0.28;;;;;;;;;;1882207;74;26239;-87
2022/07/16 09:17:11;;;;;;;0.20;0.20;;;;;;;;;;1880589;74;26243;-87
2022/07/16 09:19:38;;;;;;;0.30;0.30;;;;;;;;;;1891551;75;26309;-87
2022/07/16 09:22:07;;;;;;;0.10;0.10;;;;;;;;;;1904461;75;26735;-87
2022/07/16 09:24:40;;;;;;;0.10;0.10;;;;;;;;;;1887064;74;26200;-86
2022/07/16 09:27:11;;;;;;;0.10;0.10;;;;;;;;;;1888449;75;26726;-87
2022/07/16 09:29:41;;;;;;;0.10;0.10;;;;;;;;;;1900148;75;26313;-86
2022/07/16 09:32:08;;;;;;;0.10;0.10;;;;;;;;;;1883450;74;26402;-86
2022/07/16 09:34:36;;;;;;;0.10;0.10;;;;;;;;;;1888292;75;26762;-86
2022/07/16 09:37:04;;;;;;;0.10;0.10;;;;;;;;;;1890478;75;27145;-86
2022/07/16 09:39:33;;;;;;;0.10;0.10;;;;;;;;;;1894968;75;26463;-86
2022/07/16 09:42:01;;;;;;;0.10;0.10;;;;;;;;;;1885554;74;26308;-86
2022/07/16 09:44:30;;;;;;;0.10;0.10;;;;;;;;;;1891035;74;26239;-88
2022/07/16 09:47:02;;;;;;;0.13;0.13;;;;;;;;;;1887111;75;26298;-86
2022/07/16 09:49:30;;;;;;;0.10;0.10;;;;;;;;;;1899883;74;26285;-86
2022/07/16 09:51:57;;;;;;;0.10;0.10;;;;;;;;;;1899762;75;26271;-87
2022/07/16 09:54:29;;;;;;;0.03;0.03;;;;;;;;;;1891451;75;26324;-88
2022/07/16 09:57:06;;;;;;;0.15;0.15;;;;;;;;;;1879241;75;26242;-87
2022/07/16 09:59:34;;;;;;;0.20;0.20;;;;;;;;;;1901104;75;26304;-88
2022/07/16 10:02:03;;;;;;;0.10;0.10;;;;;;;;;;1889557;74;26219;-86
2022/07/16 10:04:32;;;;;;;0.17;0.17;;;;;;;;;;1881505;75;26271;-87
2022/07/16 10:06:59;;;;;;;0.10;0.10;;;;;;;;;;1885609;75;26272;-87
2022/07/16 10:09:27;;;;;;;0.10;0.10;;;;;;;;;;1905316;74;26263;-88
2022/07/16 10:11:55;;;;;;;0.10;0.10;;;;;;;;;;1898668;75;26285;-87
2022/07/16 10:14:23;;;;;;;0.10;0.10;;;;;;;;;;1897683;74;26292;-88
2022/07/16 10:16:53;;;;;;;0.10;0.10;;;;;;;;;;1893442;74;26286;-87
2022/07/16 10:19:22;;;;;;;0.10;0.10;;;;;;;;;;1888496;74;26244;-87
2022/07/16 10:22:07;;;;;;;0.10;0.10;;;;;;;;;;1884648;74;26725;-87
2022/07/16 10:24:44;;;;;;;0.10;0.10;;;;;;;;;;1893111;75;26235;-86
2022/07/16 10:27:32;;;;;;;0.03;0.03;;;;;;;;;;1890385;75;26312;-87
2022/07/16 10:30:10;;;;;;;0.10;0.10;;;;;;;;;;1887788;75;26821;-86
2022/07/16 10:32:55;;;;;;;0.20;0.20;;;;;;;;;;1891499;74;26309;-85
2022/07/16 10:35:40;;;;;;;0.10;0.10;;;;;;;;;;1893158;74;26724;-86
2022/07/16 10:38:09;;;;;;;0.10;0.10;;;;;;;;;;1895283;75;26336;-87
2022/07/16 10:40:37;;;;;;;0.10;0.10;;;;;;;;;;1877021;75;27027;-87
2022/07/16 10:43:11;;;;;;;0.10;0.10;;;;;;;;;;1900123;74;26226;-86
2022/07/16 10:45:55;;;;;;;0.10;0.10;;;;;;;;;;1894307;74;26380;-86
2022/07/16 10:48:27;;;;;;;0.10;0.10;;;;;;;;;;1889089;74;26372;-87
2022/07/16 10:51:12;;;;;;;0.13;0.13;;;;;;;;;;1899995;72;26447;-87
2022/07/16 10:54:02;;;;;;;0.10;0.10;;;;;;;;;;1885702;72;26245;-87
2022/07/16 10:56:36;;;;;;;0.20;0.20;;;;;;;;;;1900897;72;26255;-86
2022/07/16 10:59:05;;;;;;;0.10;0.10;;;;;;;;;;1891404;73;26229;-87
2022/07/16 11:01:33;;;;;;;0.85;0.10;;;;;;;;;;1904143;73;26330;-87
2022/07/16 11:04:02;;;;;;;0.10;0.10;;;;;;;;;;1898114;72;26241;-86
2022/07/16 11:06:29;;;;;;;0.10;0.10;;;;;;;;;;1895544;72;26199;-87
2022/07/16 11:08:57;;;;;;;0.10;0.10;;;;;;;;;;1888418;73;26262;-87
2022/07/16 11:11:26;;;;;;;0.00;0.00;;;;;;;;;;1896358;72;26275;-87
2022/07/16 11:13:54;;;;;;;0.10;0.10;;;;;;;;;;1908598;73;26375;-88
2022/07/16 11:16:21;;;;;;;0.00;0.00;;;;;;;;;;1897429;72;26307;-87
2022/07/16 11:18:48;;;;;;;1.17;0.20;;;;;;;;;;1889392;72;26249;-87
2022/07/16 11:21:15;;;;;;;0.10;0.10;;;;;;;;;;1868362;74;26262;-87
2022/07/16 11:23:49;;;;;;;0.10;0.10;;;;;;;;;;1877080;73;26268;-88
2022/07/16 11:26:16;;;;;;;0.00;0.00;;;;;;;;;;1902823;73;26280;-86
2022/07/16 11:28:51;;;;;;;0.10;0.10;;;;;;;;;;1895172;74;26324;-87
2022/07/16 11:31:20;;;;;;;0.10;0.10;;;;;;;;;;1882242;75;26226;-87
2022/07/16 11:33:47;;;;;;;0.10;0.10;;;;;;;;;;1887450;74;26679;-87
2022/07/16 11:36:14;;;;;;;0.00;0.00;;;;;;;;;;1897363;75;26368;-87
2022/07/16 11:38:42;;;;;;;0.00;0.00;;;;;;;;;;1883243;75;26317;-87
2022/07/16 11:41:09;;;;;;;0.00;0.00;;;;;;;;;;1895720;74;26738;-87
2022/07/16 11:43:37;;;;;;;0.05;0.05;;;;;;;;;;1892486;75;26295;-87
2022/07/16 11:46:04;;;;;;;0.00;0.00;;;;;;;;;;1901051;75;26307;-86
2022/07/16 11:48:40;;;;;;;0.10;0.10;;;;;;;;;;1875617;72;26242;-86
2022/07/16 11:51:08;;;;;;;0.10;0.10;;;;;;;;;;1884452;73;26792;-86
2022/07/16 11:53:40;;;;;;;0.00;0.00;;;;;;;;;;1900651;74;26301;-87
2022/07/16 11:56:06;;;;;;;0.42;0.10;;;;;;;;;;1899964;75;26259;-87
2022/07/16 11:58:34;;;;;;;0.00;0.00;;;;;;;;;;1895856;75;26745;-87
2022/07/16 12:01:01;;;;;;;0.00;0.00;;;;;;;;;;1867976;75;26308;-88
2022/07/16 12:03:28;;;;;;;0.10;0.10;;;;;;;;;;1893272;74;26758;-87
2022/07/16 12:06:03;;;;;;;0.00;0.00;;;;;;;;;;1895161;74;26247;-88
2022/07/16 12:08:32;;;;;;;0.00;0.00;;;;;;;;;;1889691;74;26251;-87
2022/07/16 12:11:03;;;;;;;0.05;0.05;;;;;;;;;;1899950;74;26390;-87
2022/07/16 12:13:30;;;;;;;0.00;0.00;;;;;;;;;;1891617;75;26695;-87
2022/07/16 12:16:00;;;;;;;0.00;0.00;;;;;;;;;;1879845;74;26230;-87
2022/07/16 12:18:29;;;;;;;0.10;0.10;;;;;;;;;;1898616;75;26317;-88
2022/07/16 12:20:58;;;;;;;0.00;0.00;;;;;;;;;;1882812;74;26218;-87
2022/07/16 12:23:32;;;;;;;0.13;0.10;;;;;;;;;;1859879;75;26302;-87
2022/07/16 12:26:01;;;;;;;0.10;0.10;;;;;;;;;;1893233;75;26335;-87
2022/07/16 12:28:29;;;;;;;0.00;0.00;;;;;;;;;;1885462;75;26223;-86
2022/07/16 12:30:58;;;;;;;0.10;0.10;;;;;;;;;;1896802;74;26676;-87
2022/07/16 12:33:27;;;;;;;0.08;0.08;;;;;;;;;;1895419;75;26243;-87
2022/07/16 12:35:58;;;;;;;0.00;0.00;;;;;;;;;;1901964;75;26279;-87
2022/07/16 12:38:38;;;;;;;0.00;0.00;;;;;;;;;;1889545;75;26238;-87
2022/07/16 12:41:07;;;;;;;0.10;0.10;;;;;;;;;;1890086;74;27196;-87
2022/07/16 12:43:34;;;;;;;0.10;0.10;;;;;;;;;;1881170;75;26320;-87
2022/07/16 12:46:03;;;;;;;0.10;0.10;;;;;;;;;;1883963;74;26276;-87
2022/07/16 12:48:32;;;;;;;0.00;0.00;;;;;;;;;;1905650;74;26252;-88
2022/07/16 12:50:59;;;;;;;0.10;0.10;;;;;;;;;;1889838;75;26239;-87
2022/07/16 12:53:26;;;;;;;0.10;0.10;;;;;;;;;;1882588;74;26332;-87
2022/07/16 12:58:47;;;;;;;0.00;0.00;;;;;;;;;;1886359;75;26209;-87
2022/07/16 13:01:15;;;;;;;0.00;0.00;;;;;;;;;;1886990;75;26243;-87
2022/07/16 13:03:43;;;;;;;0.00;0.00;;;;;;;;;;1895329;74;26313;-87
2022/07/16 13:06:11;;;;;;;0.00;0.00;;;;;;;;;;1883028;75;26309;-87
2022/07/16 13:08:38;;;;;;;0.10;0.10;;;;;;;;;;1892585;74;26277;-86
2022/07/16 13:11:06;;;;;;;0.00;0.00;;;;;;;;;;1886692;75;26733;-86
2022/07/16 13:13:34;;;;;;;0.10;0.10;;;;;;;;;;1897978;75;26368;-87
2022/07/16 13:16:01;;;;;;;0.10;0.10;;;;;;;;;;1892915;75;26299;-86
2022/07/16 13:18:34;;;;;;;0.10;0.10;;;;;;;;;;1882908;75;26269;-86
2022/07/16 13:21:01;;;;;;;0.00;0.00;;;;;;;;;;1898576;74;26242;-86
2022/07/16 13:23:30;;;;;;;0.00;0.00;;;;;;;;;;1901827;74;26300;-87
2022/07/16 13:25:57;;;;;;;0.00;0.00;;;;;;;;;;1896146;74;26243;-86
2022/07/16 13:28:25;;;;;;;0.00;0.00;;;;;;;;;;1898988;74;27485;-88
2022/07/16 13:30:52;;;;;;;0.00;0.00;;;;;;;;;;1901457;75;26275;-87
2022/07/16 13:33:20;;;;;;;0.15;0.15;;;;;;;;;;1890362;75;26294;-86
2022/07/16 13:35:47;;;;;;;0.00;0.00;;;;;;;;;;1895360;75;26231;-87
2022/07/16 13:38:16;;;;;;;0.10;0.10;;;;;;;;;;1882460;75;26198;-87
2022/07/16 13:40:43;;;;;;;0.10;0.10;;;;;;;;;;1894087;75;26687;-87
2022/07/16 13:43:11;;;;;;;0.00;0.00;;;;;;;;;;1883132;75;26245;-86
2022/07/16 13:45:39;;;;;;;0.13;0.13;;;;;;;;;;1904313;75;26215;-86
2022/07/16 13:48:06;;;;;;;0.00;0.00;;;;;;;;;;1895014;75;26246;-87
2022/07/16 13:50:33;;;;;;;0.10;0.10;;;;;;;;;;1882143;75;26235;-87
2022/07/16 13:53:00;;;;;;;0.00;0.00;;;;;;;;;;1897372;75;26250;-87
2022/07/16 13:55:28;;;;;;;0.05;0.05;;;;;;;;;;1889204;74;26237;-88
2022/07/16 14:00:41;;;;;;;0.10;0.10;;;;;;;;;;1885186;74;26248;-87
2022/07/16 14:03:08;;;;;;;0.00;0.00;;;;;;;;;;1894120;74;26325;-86
2022/07/16 14:05:36;;;;;;;0.08;0.08;;;;;;;;;;1906020;74;26259;-86
2022/07/16 14:08:04;;;;;;;0.00;0.00;;;;;;;;;;1895364;74;26219;-85
2022/07/16 14:10:31;;;;;;;0.03;0.03;;;;;;;;;;1868150;75;26607;-86
2022/07/16 14:12:59;;;;;;;0.00;0.00;;;;;;;;;;1873681;75;26296;-86
2022/07/16 14:15:30;;;;;;;0.00;0.00;;;;;;;;;;1886977;74;26364;-86
2022/07/16 14:17:56;;;;;;;0.03;0.03;;;;;;;;;;1884735;74;26330;-86
2022/07/16 14:20:24;;;;;;;0.00;0.00;;;;;;;;;;1892777;75;26288;-85
2022/07/16 14:22:53;;;;;;;0.08;0.08;;;;;;;;;;1900322;74;26315;-86
2022/07/16 14:25:20;;;;;;;0.00;0.00;;;;;;;;;;1883124;74;26307;-86
2022/07/16 14:27:48;;;;;;;0.10;0.10;;;;;;;;;;1904179;74;26346;-86
2022/07/16 14:30:17;;;;;;;0.10;0.10;;;;;;;;;;1895281;75;26287;-87
2022/07/16 14:32:44;;;;;;;0.00;0.00;;;;;;;;;;1895641;74;26682;-87
2022/07/16 14:35:12;;;;;;;0.10;0.10;;;;;;;;;;1888167;74;26259;-86
2022/07/16 14:37:41;;;;;;;0.00;0.00;;;;;;;;;;1892274;75;26388;-86
2022/07/16 14:40:09;;;;;;;0.00;0.00;;;;;;;;;;1878663;75;26286;-87
2022/07/16 14:42:37;;;;;;;0.10;0.10;;;;;;;;;;1889211;74;26336;-86
2022/07/16 14:45:05;;;;;;;0.00;0.00;;;;;;;;;;1876526;74;26887;-87
2022/07/16 14:47:36;;;;;;;0.10;0.10;;;;;;;;;;1895711;75;26248;-87
2022/07/16 14:50:03;;;;;;;0.10;0.10;;;;;;;;;;1872923;75;26313;-86
2022/07/16 14:52:30;;;;;;;0.10;0.10;;;;;;;;;;1899686;75;26203;-87
2022/07/16 14:54:58;;;;;;;0.00;0.00;;;;;;;;;;1904015;75;26685;-87
2022/07/16 14:57:25;;;;;;;0.10;0.10;;;;;;;;;;1877376;75;26274;-87
2022/07/16 14:59:52;;;;;;;0.00;0.00;;;;;;;;;;1899615;75;26353;-87
2022/07/16 15:02:20;;;;;;;0.10;0.10;;;;;;;;;;1877455;75;27200;-87
2022/07/16 15:04:47;;;;;;;0.00;0.00;;;;;;;;;;1896182;74;26307;-87